SBSPSBRJ

Guest
Details From SBSP - Sao Paulo Congonhas
To SBRJ - Santos-Dumont
Flight Number -
Tags decoded
Created
Modified
Stats Distance 197 nm / 366 km
Max Altitude 0 ft / 0 m
Waypoints 3
Social Downloads 8
Likes 0
Share

Download

Looking for another format? Having issues loading an existing format? Contact us
Advertisement - Login to hide

Notes

Requested: SBSP COSME UW63 CANO SBRJ Unmatched points: UW63 CANO

Route

SBSP COSME SBRJ

ID Type Via Altitude (ft/m) Position (lat/lon) Dist (leg/tot) Name
O SBSP APT - 0 / 0 -23.62669 / -46.65538 - / 0 nm Sao Paulo Congonhas
COSME FIX - 0 / 0 -23.27683 / -45.10717 87 / 87 nm
O SBRJ APT - 0 / 0 -22.91046 / -43.16313 109 / 197 nm Santos-Dumont

Altitude Profile

Advertisement - Login to hide

Weather


0- 5 10 15 20 25 30 35+ Temperature / °C

Clouds and Precipitation
Forecast for 2021-07-24 12:00 UTC. Updated an hour ago

Ground ~20,000 ft ~40,000 ft Winds

SBSP

Details ICAO SBSP (CGH)
Name Congonhas
Region Brazil
Timezone America/Sao_Paulo (UTC-3.0)
Stats Elevation 2,631 ft / 802 m (AMSL)
Location -23.626100° -46.656400°
Runways 2
Magnetic Variation 21.744° W

METAR

SBSP 241000Z VRB01KT CAVOK 12/10 Q1026

Decode

TAF

TAF SBSP 240400Z 2406/2418 07005KT 8000 NSC TN10/2409Z TX24/2417Z BECMG 2406/2408 4000 BR SCT008 PROB30 2408/2411 3000 BR SCT004 BECMG 2411/2413 CAVOK RMK PGD

Decode

Departure Runways

ID Width Length Bearing (true/mag) Surface Threshold Overrun Markings Lighting
17L 148 ft / 45 m 4,920 ft / 1,500 m 147.63° / 169.38° ASPHALT 197 ft / 60 m 0 ft / 0 m PREC-APP EDGE THRESHOLD
17R 148 ft / 45 m 6,360 ft / 1,938 m 147.63° / 169.38° ASPHALT 407 ft / 124 m 0 ft / 0 m PREC-APP EDGE THRESHOLD ALSF-I TDZ
35L 148 ft / 45 m 6,360 ft / 1,938 m 327.63° / 349.37° ASPHALT 180 ft / 55 m 0 ft / 0 m PREC-APP EDGE THRESHOLD
35R 148 ft / 45 m 4,920 ft / 1,500 m 327.63° / 349.37° ASPHALT 0 ft / 0 m 0 ft / 0 m PREC-APP EDGE THRESHOLD

SBRJ

Details ICAO SBRJ (SDU)
Name Santos Dumont
Region Brazil
Timezone Unknown
Stats Elevation 10 ft / 3 m (AMSL)
Location -22.910400° -43.163200°
Runways 2
Magnetic Variation 23.144° W

METAR

SBRJ 241000Z 03005KT CAVOK 17/15 Q1023

Decode

TAF

TAF SBRJ 240208Z 2406/2418 36005KT 7000 FEW010 TN18/2409Z TX24/2417Z PROB30 2409/2411 4000 BR BECMG 2414/2416 16010KT RMK PHI

Decode

Destination Runways

ID Width Length Bearing (true/mag) Surface Threshold Overrun Markings Lighting
02L 98 ft / 30 m 4,105 ft / 1,251 m 356.60° / 19.74° ASPHALT 0 ft / 0 m 0 ft / 0 m PREC-APP EDGE THRESHOLD REIL-OMNI
02R 138 ft / 42 m 4,323 ft / 1,318 m 356.58° / 19.73° ASPHALT 0 ft / 0 m 0 ft / 0 m PREC-APP EDGE THRESHOLD REIL-OMNI
20L 138 ft / 42 m 4,323 ft / 1,318 m 176.58° / 199.73° ASPHALT 0 ft / 0 m 0 ft / 0 m PREC-APP EDGE THRESHOLD REIL-OMNI
20R 98 ft / 30 m 4,105 ft / 1,251 m 176.60° / 199.74° ASPHALT 0 ft / 0 m 0 ft / 0 m PREC-APP EDGE THRESHOLD REIL-OMNI

Popular Alternatives